createdAt,value
2022-12-01T00:01:08.117Z,102830.44
2022-12-01T00:03:35.220Z,102853.38
2022-12-01T00:06:13.476Z,102847.03
2022-12-01T00:08:39.963Z,102836.63
2022-12-01T00:11:09.129Z,102849.84
2022-12-01T00:13:36.302Z,102842.13
2022-12-01T00:16:10.755Z,102828.88
2022-12-01T00:18:37.426Z,102816.69
2022-12-01T00:21:03.981Z,102835.16
2022-12-01T00:23:30.508Z,102778.16
2022-12-01T00:26:03.134Z,102824.59
2022-12-01T00:28:29.642Z,102819.41
2022-12-01T00:30:56.146Z,102817.63
2022-12-01T00:33:22.686Z,102805.25
2022-12-01T00:35:49.185Z,102818.47
2022-12-01T00:38:15.707Z,102819.25
2022-12-01T00:40:42.687Z,102805.25
2022-12-01T00:43:09.159Z,102807.91
2022-12-01T00:45:35.701Z,102827.22
2022-12-01T00:48:02.368Z,102830.63
2022-12-01T00:50:28.908Z,102828.88
2022-12-01T00:52:55.460Z,102832.28
2022-12-01T00:55:22.001Z,102809.66
2022-12-01T00:57:48.503Z,102826.06
2022-12-01T01:00:17.317Z,102818.09
2022-12-01T01:02:44.049Z,102821.59
2022-12-01T01:05:10.604Z,102814.69
2022-12-01T01:07:37.416Z,102813.19
2022-12-01T01:10:04.347Z,102816.59
2022-12-01T01:12:31.096Z,102788.47
2022-12-01T01:14:57.624Z,102781.53
2022-12-01T01:17:24.148Z,102779.69
2022-12-01T01:19:52.969Z,102811.28
2022-12-01T01:22:19.879Z,102811.25
2022-12-01T01:24:46.468Z,102783.13
2022-12-01T01:27:12.979Z,102812.84
2022-12-01T01:29:39.579Z,102824.09
2022-12-01T01:32:06.235Z,102817.88
2022-12-01T01:34:32.725Z,102821.28
2022-12-01T01:36:59.266Z,102831.72
2022-12-01T01:39:25.822Z,102821.16
2022-12-01T01:41:52.321Z,102823.75
2022-12-01T01:45:03.883Z,102838.38
2022-12-01T01:47:39.704Z,102835.56
2022-12-01T01:50:12.654Z,102844.19
2022-12-01T01:52:45.042Z,102837.28
2022-12-01T01:55:12.792Z,102819.75
2022-12-01T01:57:40.698Z,102836.63
2022-12-01T02:00:10.312Z,102834.75
2022-12-01T02:02:45.084Z,102829.47
2022-12-01T02:05:34.470Z,102824.31
2022-12-01T02:08:03.014Z,102828.59
2022-12-01T02:11:14.610Z,102823.94
2022-12-01T02:14:09.943Z,102824.66
2022-12-01T02:16:58.188Z,102826.13
2022-12-01T02:19:51.207Z,102832.84
2022-12-01T02:22:39.946Z,102840.31
2022-12-01T02:25:21.351Z,102837.59
2022-12-01T02:28:13.196Z,102839.97
2022-12-01T02:30:45.684Z,102820.59
2022-12-01T02:33:29.862Z,102799.38
2022-12-01T02:36:19.346Z,102831.94
2022-12-01T02:38:54.374Z,102833.56
2022-12-01T02:41:31.520Z,102814.22
2022-12-01T02:44:03.904Z,102834.31
2022-12-01T02:46:44.409Z,102797.53
2022-12-01T02:49:19.046Z,102830.66
2022-12-01T02:51:46.191Z,102818.50
2022-12-01T02:54:14.849Z,102806.84
2022-12-01T02:56:44.948Z,102814.84
2022-12-01T02:59:13.319Z,102829.41
2022-12-01T03:01:46.249Z,102826.63
2022-12-01T03:04:38.032Z,102810.16
2022-12-01T03:07:30.233Z,102795.81
2022-12-01T03:10:27.756Z,102810.00
2022-12-01T03:13:13.121Z,102807.31
2022-12-01T03:15:59.925Z,102807.06
2022-12-01T03:18:44.818Z,102798.13
2022-12-01T03:21:42.370Z,102805.97
2022-12-01T03:24:15.767Z,102789.22
2022-12-01T03:26:46.129Z,102780.53
2022-12-01T03:29:24.934Z,102785.94
2022-12-01T03:31:56.994Z,102772.50
2022-12-01T03:34:39.469Z,102798.00
2022-12-01T03:37:37.917Z,102801.44
2022-12-01T03:40:09.337Z,102804.78
2022-12-01T03:42:42.035Z,102789.88
2022-12-01T03:45:15.216Z,102790.97
2022-12-01T03:47:41.896Z,102801.31
2022-12-01T03:50:13.895Z,102793.72
2022-12-01T03:52:46.722Z,102801.66
2022-12-01T03:55:26.082Z,102813.19
2022-12-01T03:58:07.552Z,102806.22
2022-12-01T04:00:34.548Z,102798.41
2022-12-01T04:03:04.381Z,102815.22
2022-12-01T04:05:33.151Z,102819.47
2022-12-01T04:08:00.308Z,102825.41
2022-12-01T04:10:27.079Z,102835.38
2022-12-01T04:12:59.262Z,102816.13
2022-12-01T04:15:27.171Z,102841.78
2022-12-01T04:17:54.304Z,102846.25
2022-12-01T04:20:21.670Z,102818.59
2022-12-01T04:22:48.839Z,102836.22
2022-12-01T04:25:15.510Z,102838.91
2022-12-01T04:27:42.135Z,102845.22
2022-12-01T04:30:09.350Z,102827.91
2022-12-01T04:32:41.016Z,102829.91
2022-12-01T04:35:09.579Z,102840.47
2022-12-01T04:37:36.589Z,102837.16
2022-12-01T04:40:04.027Z,102830.41
2022-12-01T04:42:30.718Z,102833.13
2022-12-01T04:44:57.551Z,102828.75
2022-12-01T04:47:24.135Z,102844.75
2022-12-01T04:49:50.956Z,102825.50
2022-12-01T04:52:17.818Z,102858.63
2022-12-01T04:54:44.351Z,102838.59
2022-12-01T04:57:10.989Z,102864.28
2022-12-01T04:59:37.586Z,102864.34
2022-12-01T05:02:04.308Z,102858.38
2022-12-01T05:04:32.551Z,102829.34
2022-12-01T05:06:59.110Z,102853.38
2022-12-01T05:09:25.607Z,102864.16
2022-12-01T05:11:52.143Z,102826.44
2022-12-01T05:14:18.642Z,102863.47
2022-12-01T05:16:45.291Z,102856.56
2022-12-01T05:19:30.375Z,102854.78
2022-12-01T05:21:57.088Z,102862.16
2022-12-01T05:24:23.617Z,102838.50
2022-12-01T05:26:50.192Z,102856.16
2022-12-01T05:29:17.103Z,102844.00
2022-12-01T05:31:45.576Z,102867.53
2022-12-01T05:34:12.109Z,102871.09
2022-12-01T05:36:38.623Z,102857.78
2022-12-01T05:39:05.366Z,102869.16
2022-12-01T05:41:32.136Z,102876.88
2022-12-01T05:43:58.797Z,102889.19
2022-12-01T05:46:25.509Z,102885.75
2022-12-01T05:48:52.079Z,102872.75
2022-12-01T05:51:18.607Z,102881.56
2022-12-01T05:53:45.594Z,102874.69
2022-12-01T05:56:12.293Z,102877.22
2022-12-01T05:58:39.248Z,102857.22
2022-12-01T06:01:06.784Z,102888.66
2022-12-01T06:03:33.292Z,102870.94
2022-12-01T06:05:59.953Z,102876.41
2022-12-01T06:08:26.715Z,102880.63
2022-12-01T06:10:53.328Z,102888.56
2022-12-01T06:13:20.230Z,102886.75
2022-12-01T06:15:56.178Z,102891.06
2022-12-01T06:18:23.187Z,102897.00
2022-12-01T06:20:49.726Z,102882.94
2022-12-01T06:23:16.363Z,102875.88
2022-12-01T06:25:43.722Z,102889.94
2022-12-01T06:28:10.218Z,102885.38
2022-12-01T06:30:36.847Z,102897.69
2022-12-01T06:33:03.451Z,102895.09
2022-12-01T06:35:30.005Z,102866.28
2022-12-01T06:37:56.702Z,102871.66
2022-12-01T06:40:23.419Z,102881.50
2022-12-01T06:42:50.025Z,102837.69
2022-12-01T06:45:16.670Z,102881.59
2022-12-01T06:47:43.370Z,102857.88
2022-12-01T06:50:12.368Z,102883.25
2022-12-01T06:52:39.136Z,102885.16
2022-12-01T06:55:06.290Z,102886.75
2022-12-01T06:57:33.196Z,102891.13
2022-12-01T07:00:00.003Z,102876.25
2022-12-01T07:02:26.827Z,102891.94
2022-12-01T07:04:53.450Z,102890.19
2022-12-01T07:07:19.998Z,102856.66
2022-12-01T07:09:46.832Z,102882.78
2022-12-01T07:12:13.515Z,102878.59
2022-12-01T07:14:42.420Z,102893.59
2022-12-01T07:17:10.271Z,102880.94
2022-12-01T07:19:36.956Z,102915.09
2022-12-01T07:22:03.571Z,102910.59
2022-12-01T07:24:30.926Z,102921.72
2022-12-01T07:26:57.716Z,102914.63
2022-12-01T07:29:24.411Z,102870.44
2022-12-01T07:31:50.910Z,102923.72
2022-12-01T07:34:17.462Z,102921.97
2022-12-01T07:36:44.152Z,102896.47
2022-12-01T07:39:10.653Z,102926.91
2022-12-01T07:41:37.334Z,102932.94
2022-12-01T07:44:04.373Z,102940.63
2022-12-01T07:46:31.068Z,102929.91
2022-12-01T07:48:58.091Z,102945.38
2022-12-01T07:51:25.815Z,102900.44
2022-12-01T07:53:53.736Z,102952.19
2022-12-01T07:56:21.541Z,102957.34
2022-12-01T07:58:48.734Z,102960.84
2022-12-01T08:01:18.215Z,102972.81
2022-12-01T08:03:45.129Z,102933.41
2022-12-01T08:06:11.962Z,102912.56
2022-12-01T08:08:40.171Z,102932.84
2022-12-01T08:11:17.910Z,102956.53
2022-12-01T08:13:44.766Z,102954.09
2022-12-01T08:16:14.834Z,102943.47
2022-12-01T08:18:42.277Z,102952.44
2022-12-01T08:21:12.416Z,102944.50
2022-12-01T08:23:39.940Z,102932.19
2022-12-01T08:26:12.674Z,102948.22
2022-12-01T08:28:40.098Z,102954.38
2022-12-01T08:31:15.926Z,102951.91
2022-12-01T08:33:42.619Z,102963.25
2022-12-01T08:36:09.499Z,102951.03
2022-12-01T08:38:36.072Z,102937.91
2022-12-01T08:41:05.102Z,102961.75
2022-12-01T08:43:56.730Z,102964.22
2022-12-01T08:46:18.186Z,102940.47
2022-12-01T08:48:44.753Z,102963.34
2022-12-01T08:51:16.599Z,102958.13
2022-12-01T08:53:46.124Z,102956.34
2022-12-01T08:56:16.474Z,102958.34
2022-12-01T08:58:43.408Z,102963.59
2022-12-01T09:01:12.443Z,102966.31
2022-12-01T09:03:39.722Z,102960.44
2022-12-01T09:06:09.097Z,102966.66
2022-12-01T09:08:36.787Z,102965.84
2022-12-01T09:11:06.986Z,102970.41
2022-12-01T09:13:35.338Z,102971.34
2022-12-01T09:16:07.758Z,102947.59
2022-12-01T09:18:34.411Z,102990.59
2022-12-01T09:21:09.208Z,102985.53
2022-12-01T09:23:35.772Z,102966.31
2022-12-01T09:26:02.269Z,102972.59
2022-12-01T09:28:28.795Z,102974.28
2022-12-01T09:30:55.335Z,102976.28
2022-12-01T09:33:21.840Z,102977.09
2022-12-01T09:35:48.358Z,102955.16
2022-12-01T09:38:14.834Z,102977.22
2022-12-01T09:40:43.116Z,102952.56
2022-12-01T09:43:40.868Z,103004.38
2022-12-01T09:46:18.692Z,102973.84
2022-12-01T09:48:47.935Z,102996.91
2022-12-01T09:51:23.267Z,102991.72
2022-12-01T09:53:56.799Z,102989.09
2022-12-01T09:56:32.351Z,102977.03
2022-12-01T09:59:05.623Z,103000.13
2022-12-01T10:01:43.110Z,102954.53
2022-12-01T10:04:35.575Z,103021.28
2022-12-01T10:07:06.611Z,103002.28
2022-12-01T10:09:56.451Z,103017.91
2022-12-01T10:12:27.752Z,103011.97
2022-12-01T10:15:05.775Z,103021.47
2022-12-01T10:17:41.146Z,103019.91
2022-12-01T10:20:30.173Z,103019.84
2022-12-01T10:23:18.091Z,103021.56
2022-12-01T10:25:44.561Z,103010.34
2022-12-01T10:28:44.821Z,103014.63
2022-12-01T10:31:26.492Z,102991.91
2022-12-01T10:34:12.349Z,102994.72
2022-12-01T10:36:39.170Z,103011.09
2022-12-01T10:39:07.179Z,103004.31
2022-12-01T10:41:37.649Z,102997.22
2022-12-01T10:44:07.089Z,103005.28
2022-12-01T10:46:49.333Z,103004.44
2022-12-01T10:49:17.794Z,102990.47
2022-12-01T10:51:58.374Z,102985.47
2022-12-01T10:54:39.379Z,102937.34
2022-12-01T10:57:13.869Z,102970.97
2022-12-01T10:59:48.908Z,102976.34
2022-12-01T11:02:26.060Z,102971.19
2022-12-01T11:04:55.965Z,102964.34
2022-12-01T11:07:44.226Z,102957.44
2022-12-01T11:10:18.817Z,102959.06
2022-12-01T11:12:53.154Z,102948.06
2022-12-01T11:15:29.400Z,102917.41
2022-12-01T11:17:59.932Z,102946.78
2022-12-01T11:20:40.754Z,102939.84
2022-12-01T11:23:28.340Z,102951.22
2022-12-01T11:26:03.841Z,102946.16
2022-12-01T11:28:31.874Z,102930.56
2022-12-01T11:31:07.484Z,102920.22
2022-12-01T11:33:45.288Z,102936.09
2022-12-01T11:36:21.889Z,102898.56
2022-12-01T11:38:49.154Z,102931.25
2022-12-01T11:41:28.646Z,102918.41
2022-12-01T11:44:01.575Z,102908.84
2022-12-01T11:46:32.559Z,102892.28
2022-12-01T11:49:00.286Z,102882.81
2022-12-01T11:51:32.374Z,102891.88
2022-12-01T11:54:13.594Z,102890.38
2022-12-01T11:56:40.648Z,102897.50
2022-12-01T11:59:15.922Z,102864.56
2022-12-01T12:01:51.370Z,102892.75
2022-12-01T12:04:35.359Z,102882.41
2022-12-01T12:07:21.135Z,102883.59
2022-12-01T12:09:59.450Z,102881.94
2022-12-01T12:13:11.714Z,102884.72
2022-12-01T12:15:44.403Z,102882.50
2022-12-01T12:18:29.897Z,102854.66
2022-12-01T12:21:08.337Z,102881.16
2022-12-01T12:23:56.163Z,102874.34
2022-12-01T12:26:25.783Z,102875.31
2022-12-01T12:29:17.125Z,102868.44
2022-12-01T12:32:01.901Z,102875.50
2022-12-01T12:34:37.594Z,102864.31
2022-12-01T12:37:41.045Z,102863.44
2022-12-01T12:40:31.590Z,102860.16
2022-12-01T12:43:19.504Z,102860.31
2022-12-01T12:45:55.591Z,102866.50
2022-12-01T12:48:38.734Z,102857.72
2022-12-01T12:51:20.587Z,102867.28
2022-12-01T12:53:53.522Z,102864.63
2022-12-01T12:56:24.468Z,102859.44
2022-12-01T12:58:59.518Z,102861.09
2022-12-01T13:01:36.663Z,102862.78
2022-12-01T13:04:21.509Z,102859.34
2022-12-01T13:07:22.228Z,102857.69
2022-12-01T13:10:32.487Z,102856.84
2022-12-01T13:13:31.841Z,102804.38
2022-12-01T13:16:00.186Z,102837.00
2022-12-01T13:18:36.460Z,102852.94
2022-12-01T13:21:05.610Z,102830.09
2022-12-01T13:23:33.943Z,102850.28
2022-12-01T13:26:04.817Z,102845.03
2022-12-01T13:28:47.728Z,102842.59
2022-12-01T13:31:16.833Z,102833.31
2022-12-01T13:33:57.190Z,102837.88
2022-12-01T13:36:45.738Z,102833.63
2022-12-01T13:39:23.571Z,102830.19
2022-12-01T13:42:08.648Z,102825.94
2022-12-01T13:44:41.980Z,102827.69
2022-12-01T13:47:11.502Z,102825.16
2022-12-01T13:49:52.530Z,102816.41
2022-12-01T13:52:22.161Z,102828.53
2022-12-01T13:55:07.356Z,102827.56
2022-12-01T13:57:39.657Z,102831.03
2022-12-01T14:00:28.099Z,102828.44
2022-12-01T14:03:13.055Z,102825.00
2022-12-01T14:05:39.773Z,102830.19
2022-12-01T14:08:21.279Z,102831.00
2022-12-01T14:11:03.397Z,102831.81
2022-12-01T14:13:31.779Z,102823.88
2022-12-01T14:16:00.588Z,102826.53
2022-12-01T14:18:36.688Z,102799.38
2022-12-01T14:21:06.224Z,102797.66
2022-12-01T14:23:35.350Z,102814.25
2022-12-01T14:26:16.830Z,102828.25
2022-12-01T14:28:55.676Z,102828.25
2022-12-01T14:31:24.137Z,102816.97
2022-12-01T14:34:14.443Z,102823.03
2022-12-01T14:36:49.280Z,102802.69
2022-12-01T14:39:21.375Z,102822.88
2022-12-01T14:41:51.622Z,102829.75
2022-12-01T14:44:36.478Z,102822.75
2022-12-01T14:47:29.441Z,102818.41
2022-12-01T14:50:02.062Z,102821.84
2022-12-01T14:52:28.544Z,102820.09
2022-12-01T14:54:58.603Z,102791.09
2022-12-01T14:57:32.164Z,102817.31
2022-12-01T15:00:14.080Z,102823.28
2022-12-01T15:02:44.399Z,102805.81
2022-12-01T15:05:16.728Z,102806.56
2022-12-01T15:07:47.432Z,102816.25
2022-12-01T15:10:20.725Z,102817.16
2022-12-01T15:12:48.240Z,102805.78
2022-12-01T15:15:32.624Z,102808.47
2022-12-01T15:18:01.812Z,102806.63
2022-12-01T15:20:37.368Z,102801.38
2022-12-01T15:23:14.974Z,102804.88
2022-12-01T15:25:44.854Z,102810.13
2022-12-01T15:28:29.301Z,102804.88
2022-12-01T15:30:56.366Z,102802.88
2022-12-01T15:33:30.626Z,102804.69
2022-12-01T15:36:00.681Z,102798.47
2022-12-01T15:38:32.363Z,102803.50
2022-12-01T15:44:00.741Z,102805.97
2022-12-01T15:46:30.712Z,102809.38
2022-12-01T15:49:32.275Z,102803.34
2022-12-01T15:52:11.328Z,102785.72
2022-12-01T15:54:38.805Z,102781.19
2022-12-01T15:57:06.269Z,102803.00
2022-12-01T15:59:35.654Z,102798.66
2022-12-01T16:02:30.527Z,102797.63
2022-12-01T16:05:03.266Z,102801.81
2022-12-01T16:08:12.182Z,102797.34
2022-12-01T16:10:36.766Z,102780.47
2022-12-01T16:13:37.472Z,102796.19
2022-12-01T16:16:32.069Z,102796.91
2022-12-01T16:19:10.286Z,102807.19
2022-12-01T16:21:58.193Z,102806.31
2022-12-01T16:24:37.710Z,102776.09
2022-12-01T16:27:30.162Z,102806.13
2022-12-01T16:30:02.779Z,102804.41
2022-12-01T16:32:35.967Z,102801.03
2022-12-01T16:35:04.316Z,102801.75
2022-12-01T16:37:31.154Z,102805.31
2022-12-01T16:39:58.538Z,102785.88
2022-12-01T16:42:25.113Z,102776.25
2022-12-01T16:44:52.226Z,102800.00
2022-12-01T16:47:25.687Z,102790.38
2022-12-01T16:49:53.051Z,102789.25
2022-12-01T16:55:25.494Z,102819.94
2022-12-01T16:57:52.064Z,102789.25
2022-12-01T17:00:18.937Z,102807.84
2022-12-01T17:02:45.456Z,102791.97
2022-12-01T17:05:11.991Z,102790.97
2022-12-01T17:07:38.667Z,102800.75
2022-12-01T17:10:06.177Z,102785.72
2022-12-01T17:12:32.848Z,102791.97
2022-12-01T17:14:59.376Z,102790.00
2022-12-01T17:17:25.991Z,102786.41
2022-12-01T17:19:52.988Z,102811.75
2022-12-01T17:22:19.882Z,102773.13
2022-12-01T17:24:46.383Z,102790.50
2022-12-01T17:27:13.192Z,102814.91
2022-12-01T17:29:45.725Z,102789.28
2022-12-01T17:32:13.824Z,102833.88
2022-12-01T17:34:41.056Z,102781.25
2022-12-01T17:37:07.856Z,102800.56
2022-12-01T17:39:34.429Z,102805.75
2022-12-01T17:42:00.954Z,102816.28
2022-12-01T17:44:27.518Z,102802.91
2022-12-01T17:46:54.286Z,102815.22
2022-12-01T17:49:21.174Z,102815.00
2022-12-01T17:51:47.876Z,102822.91
2022-12-01T17:54:15.800Z,102829.59
2022-12-01T17:56:42.850Z,102803.91
2022-12-01T17:59:09.543Z,102815.28
2022-12-01T18:01:36.192Z,102821.38
2022-12-01T18:04:03.869Z,102814.34
2022-12-01T18:06:30.564Z,102814.28
2022-12-01T18:08:57.703Z,102825.66
2022-12-01T18:11:24.337Z,102812.31
2022-12-01T18:13:52.155Z,102821.28
2022-12-01T18:16:23.234Z,102831.63
2022-12-01T18:18:50.483Z,102831.56
2022-12-01T18:21:19.617Z,102828.09
2022-12-01T18:23:51.037Z,102832.44
2022-12-01T18:26:19.051Z,102835.00
2022-12-01T18:28:45.659Z,102783.28
2022-12-01T18:31:14.941Z,102809.56
2022-12-01T18:33:43.789Z,102816.47
2022-12-01T18:36:19.286Z,102808.59
2022-12-01T18:38:49.201Z,102829.63
2022-12-01T18:41:16.741Z,102833.06
2022-12-01T18:43:44.343Z,102828.88
2022-12-01T18:46:12.359Z,102833.19
2022-12-01T18:48:45.283Z,102824.53
2022-12-01T18:51:12.493Z,102819.94
2022-12-01T18:53:39.665Z,102843.72
2022-12-01T18:56:11.783Z,102812.09
2022-12-01T18:58:39.356Z,102836.78
2022-12-01T19:01:21.856Z,102819.00
2022-12-01T19:03:48.771Z,102830.69
2022-12-01T19:06:15.813Z,102825.50
2022-12-01T19:08:42.637Z,102834.13
2022-12-01T19:11:09.223Z,102816.69
2022-12-01T19:13:35.893Z,102827.13
2022-12-01T19:16:08.401Z,102839.47
2022-12-01T19:18:36.179Z,102838.47
2022-12-01T19:21:04.674Z,102826.13
2022-12-01T19:23:31.574Z,102828.75
2022-12-01T19:25:58.507Z,102780.47
2022-12-01T19:28:25.022Z,102819.22
2022-12-01T19:30:51.810Z,102813.00
2022-12-01T19:33:18.300Z,102817.75
2022-12-01T19:35:44.952Z,102822.88
2022-12-01T19:38:11.694Z,102810.63
2022-12-01T19:40:38.860Z,102836.22
2022-12-01T19:43:05.584Z,102843.22
2022-12-01T19:45:33.463Z,102840.69
2022-12-01T19:48:00.117Z,102801.16
2022-12-01T19:50:26.627Z,102812.69
2022-12-01T19:52:53.170Z,102831.91
2022-12-01T19:55:19.741Z,102840.78
2022-12-01T19:57:51.397Z,102835.53
2022-12-01T20:00:19.072Z,102837.16
2022-12-01T20:02:45.692Z,102804.84
2022-12-01T20:05:12.436Z,102824.19
2022-12-01T20:07:39.150Z,102799.56
2022-12-01T20:10:06.255Z,102819.69
2022-12-01T20:12:34.818Z,102832.81
2022-12-01T20:15:01.665Z,102828.41
2022-12-01T20:17:28.192Z,102820.66
2022-12-01T20:19:54.702Z,102813.53
2022-12-01T20:22:21.235Z,102816.19
2022-12-01T20:24:48.123Z,102823.13
2022-12-01T20:27:14.814Z,102817.03
2022-12-01T20:29:41.360Z,102824.13
2022-12-01T20:32:26.902Z,102830.25
2022-12-01T20:35:13.793Z,102825.00
2022-12-01T20:38:00.762Z,102806.47
2022-12-01T20:40:50.660Z,102821.28
2022-12-01T20:43:38.242Z,102836.09
2022-12-01T20:46:05.181Z,102835.13
2022-12-01T20:48:32.290Z,102829.03
2022-12-01T20:51:01.507Z,102834.34
2022-12-01T20:53:28.189Z,102832.66
2022-12-01T20:55:55.772Z,102812.38
2022-12-01T20:58:23.790Z,102802.78
2022-12-01T21:00:50.329Z,102793.72
2022-12-01T21:03:16.851Z,102834.25
2022-12-01T21:05:43.825Z,102840.38
2022-12-01T21:08:12.577Z,102828.22
2022-12-01T21:10:42.519Z,102840.38
2022-12-01T21:13:38.385Z,102815.09
2022-12-01T21:16:26.900Z,102814.97
2022-12-01T21:18:59.888Z,102810.75
2022-12-01T21:21:31.446Z,102805.50
2022-12-01T21:24:18.689Z,102809.91
2022-12-01T21:26:50.439Z,102833.66
2022-12-01T21:29:20.063Z,102820.34
2022-12-01T21:31:49.977Z,102836.09
2022-12-01T21:34:23.006Z,102837.09
2022-12-01T21:36:52.719Z,102822.41
2022-12-01T21:39:22.100Z,102805.66
2022-12-01T21:41:50.674Z,102811.88
2022-12-01T21:44:19.354Z,102811.13
2022-12-01T21:46:47.839Z,102792.84
2022-12-01T21:49:37.129Z,102812.97
2022-12-01T21:52:12.070Z,102817.50
2022-12-01T21:54:38.695Z,102816.63
2022-12-01T21:57:29.401Z,102787.72
2022-12-01T22:00:08.354Z,102819.38
2022-12-01T22:03:21.753Z,102809.91
2022-12-01T22:06:13.699Z,102805.56
2022-12-01T22:08:40.376Z,102817.78
2022-12-01T22:11:14.937Z,102817.00
2022-12-01T22:14:08.677Z,102810.00
2022-12-01T22:17:00.964Z,102785.47
2022-12-01T22:19:37.392Z,102804.09
2022-12-01T22:22:09.942Z,102804.19
2022-12-01T22:24:45.443Z,102806.75
2022-12-01T22:27:11.951Z,102806.81
2022-12-01T22:29:47.041Z,102801.63
2022-12-01T22:32:13.574Z,102803.41
2022-12-01T22:34:53.771Z,102802.47
2022-12-01T22:37:23.043Z,102788.53
2022-12-01T22:39:53.715Z,102800.00
2022-12-01T22:42:34.714Z,102791.25
2022-12-01T22:45:25.765Z,102810.41
2022-12-01T22:48:00.309Z,102796.47
2022-12-01T22:50:32.207Z,102800.94
2022-12-01T22:53:10.807Z,102802.78
2022-12-01T22:55:37.707Z,102774.72
2022-12-01T22:58:22.651Z,102803.69
2022-12-01T23:00:49.391Z,102801.09
2022-12-01T23:03:16.636Z,102800.25
2022-12-01T23:05:43.242Z,102749.47
2022-12-01T23:08:11.040Z,102796.84
2022-12-01T23:10:40.353Z,102756.38
2022-12-01T23:13:19.763Z,102788.06
2022-12-01T23:15:49.274Z,102784.47
2022-12-01T23:18:27.213Z,102794.16
2022-12-01T23:20:58.907Z,102767.03
2022-12-01T23:23:34.624Z,102754.81
2022-12-01T23:26:07.555Z,102786.41
2022-12-01T23:28:36.911Z,102758.31
2022-12-01T23:31:03.530Z,102773.38
2022-12-01T23:33:32.679Z,102796.94
2022-12-01T23:36:05.213Z,102783.06
2022-12-01T23:38:38.253Z,102763.78
2022-12-01T23:41:07.903Z,102776.16
2022-12-01T23:43:40.126Z,102763.97
2022-12-01T23:46:16.843Z,102746.53
2022-12-01T23:49:05.215Z,102777.03
2022-12-01T23:51:38.580Z,102748.34
2022-12-01T23:54:14.222Z,102763.22
2022-12-01T23:56:40.804Z,102767.66
2022-12-01T23:59:13.431Z,102728.44
